createdAt,value
2017-06-09T00:11:09.036Z,36.52
2017-06-09T00:31:09.507Z,34.84
2017-06-09T00:51:09.962Z,34.40
2017-06-09T01:11:10.390Z,25.03
2017-06-09T01:31:10.809Z,29.91
2017-06-09T01:51:11.285Z,86.70
2017-06-09T02:11:11.642Z,93.80
2017-06-09T02:31:12.180Z,70.76
2017-06-09T02:50:28.249Z,72.81
2017-06-09T03:10:28.682Z,80.80
2017-06-09T03:30:29.203Z,47.19
2017-06-09T03:50:29.689Z,58.94
2017-06-09T04:10:30.178Z,51.27
2017-06-09T04:30:30.540Z,71.47
2017-06-09T04:50:31.052Z,100.00
2017-06-09T05:10:31.576Z,100.00
2017-06-09T05:30:32.015Z,100.00
2017-06-09T05:50:32.562Z,100.00
2017-06-09T06:10:33.058Z,100.00
2017-06-09T06:45:33.858Z,100.00
2017-06-09T07:05:34.319Z,100.00
2017-06-09T07:25:34.792Z,100.00
2017-06-09T07:45:35.229Z,100.00
2017-06-09T08:05:35.724Z,100.00
2017-06-09T08:25:36.123Z,100.00
2017-06-09T08:45:36.653Z,100.00
2017-06-09T09:05:37.182Z,100.00
2017-06-09T09:25:37.627Z,100.00
2017-06-09T09:45:38.134Z,100.00
2017-06-09T10:05:38.616Z,100.00
2017-06-09T10:25:39.167Z,100.00
2017-06-09T10:45:39.630Z,100.00
2017-06-09T11:05:40.026Z,100.00
2017-06-09T11:25:40.531Z,100.00
2017-06-09T11:45:41.084Z,100.00
2017-06-09T12:05:41.524Z,100.00
2017-06-09T12:25:41.828Z,100.00
2017-06-09T12:45:42.316Z,100.00
2017-06-09T13:05:42.824Z,100.00
2017-06-09T13:25:43.318Z,95.39
2017-06-09T13:45:43.803Z,77.47
2017-06-09T14:05:44.240Z,43.49
2017-06-09T14:25:44.719Z,10.00
2017-06-09T14:55:45.458Z,46.27
2017-06-09T15:15:45.927Z,0.01
2017-06-09T15:35:46.497Z,13.66
2017-06-09T15:55:46.870Z,0.00
2017-06-09T16:15:47.419Z,0.00
2017-06-09T16:35:47.924Z,0.00
2017-06-09T16:55:48.443Z,0.00
2017-06-09T17:15:48.998Z,0.00
2017-06-09T17:35:49.434Z,0.00
2017-06-09T17:55:49.982Z,0.00
2017-06-09T18:15:50.498Z,0.00
2017-06-09T18:35:50.989Z,0.00
2017-06-09T18:55:51.467Z,0.01
2017-06-09T19:15:52.005Z,0.64
2017-06-09T19:35:52.431Z,0.00
2017-06-09T19:55:52.938Z,71.55
2017-06-09T20:15:54.495Z,100.00
2017-06-09T20:56:38.857Z,99.93
2017-06-09T21:31:39.495Z,22.41
2017-06-09T21:51:39.983Z,14.40
2017-06-09T22:11:40.394Z,64.89
2017-06-09T22:31:40.861Z,75.24
2017-06-09T22:51:41.227Z,23.50
2017-06-09T23:11:41.705Z,29.46
2017-06-09T23:31:42.111Z,25.45
2017-06-09T23:51:42.582Z,27.46
